Terminal Aerodrome Forecast
Issued by NWS

Home | Current Version | Previous Version | Text Only | Print | Product List | Glossary On
Versions: 1 2 3 4 5 6 7 8 9 10 11 12 13
000
FTUS46 KPDT 022320
TAFYKM
TAF
KYKM 022320Z 0300/0324 06005KT P6SM SKC
     FM030400 25006KT P6SM FEW100 SCT250
     FM031500 15005KT P6SM VCSH BKN100 BKN200=

USA.gov is the U.S. government's official web portal to all federal, state and local government web resources and services.